Time;durP1;ratioP1;P1;durP2;ratioP2;P2;SDS_P1;SDS_P2;PMS_P1;PMS_P2;Temp;Humidity;BMP_temperature;BMP_pressure;BME280_temperature;BME280_humidity;BME280_pressure;Samples;Min_cycle;Max_cycle;Signal;HPM_P1;HPM_P2
2022/06/03 00:01:39;;;;;;;2.78;2.55;;;;;;;;;;10363904;28;20161;-80
2022/06/03 00:06:39;;;;;;;2.63;2.42;;;;;;;;;;10363183;28;20101;-78
2022/06/03 00:11:45;;;;;;;3.25;2.90;;;;;;;;;;10345324;28;20120;-78
2022/06/03 00:17:06;;;;;;;5.25;3.13;;;;;;;;;;10352411;28;20069;-78
2022/06/03 00:22:19;;;;;;;3.42;3.05;;;;;;;;;;10320383;28;20136;-78
2022/06/03 00:27:22;;;;;;;2.97;2.72;;;;;;;;;;10345827;28;20054;-79
2022/06/03 00:32:23;;;;;;;;;;;;;;;;;;10333371;28;20039;-78
2022/06/03 00:37:43;;;;;;;2.95;2.50;;;;;;;;;;10335621;28;19914;-78
2022/06/03 00:42:52;;;;;;;2.85;2.30;;;;;;;;;;10347470;28;20129;-77
2022/06/03 00:48:12;;;;;;;2.70;2.50;;;;;;;;;;10333563;28;20051;-80
2022/06/03 00:53:43;;;;;;;2.53;2.20;;;;;;;;;;10337676;28;20038;-77
2022/06/03 00:58:46;;;;;;;2.53;2.00;;;;;;;;;;10310169;28;20073;-78
2022/06/03 01:03:46;;;;;;;;;;;;;;;;;;10319349;28;20057;-77
2022/06/03 01:09:06;;;;;;;2.90;2.60;;;;;;;;;;10349361;28;19929;-79
2022/06/03 01:14:16;;;;;;;2.67;2.30;;;;;;;;;;10307572;28;20080;-77
2022/06/03 01:19:32;;;;;;;3.00;2.25;;;;;;;;;;10338406;28;20787;-78
2022/06/03 01:24:51;;;;;;;2.58;2.38;;;;;;;;;;10332312;28;20046;-78
2022/06/03 01:29:55;;;;;;;4.20;3.20;;;;;;;;;;10343289;28;20113;-80
2022/06/03 01:35:16;;;;;;;2.80;2.60;;;;;;;;;;10350792;28;20056;-78
2022/06/03 01:40:21;;;;;;;2.65;2.40;;;;;;;;;;10337274;28;20279;-78
2022/06/03 01:45:40;;;;;;;2.85;2.60;;;;;;;;;;10359450;28;20506;-78
2022/06/03 01:50:44;;;;;;;3.65;3.03;;;;;;;;;;10352044;28;20073;-77
2022/06/03 01:56:03;;;;;;;2.70;2.50;;;;;;;;;;10352887;28;20038;-78
2022/06/03 02:01:14;;;;;;;3.45;2.55;;;;;;;;;;10341278;28;20481;-78
2022/06/03 02:06:15;;;;;;;2.92;2.70;;;;;;;;;;10344233;28;20097;-77
2022/06/03 02:11:26;;;;;;;4.47;3.80;;;;;;;;;;10332732;28;20106;-79
2022/06/03 02:16:44;;;;;;;3.20;2.90;;;;;;;;;;10329632;28;20086;-81
2022/06/03 02:22:04;;;;;;;2.78;2.30;;;;;;;;;;10342627;28;20045;-79
2022/06/03 02:27:23;;;;;;;4.15;2.83;;;;;;;;;;10348102;28;20105;-79
2022/06/03 02:32:42;;;;;;;4.72;3.25;;;;;;;;;;10345222;28;20120;-80
2022/06/03 02:37:54;;;;;;;3.28;2.90;;;;;;;;;;10348924;28;20038;-79
2022/06/03 02:43:00;;;;;;;3.42;3.13;;;;;;;;;;10334504;28;20121;-79
2022/06/03 02:48:20;;;;;;;3.10;2.80;;;;;;;;;;10367940;28;20079;-78
2022/06/03 02:53:20;;;;;;;3.47;3.17;;;;;;;;;;10385127;28;20098;-78
2022/06/03 02:58:20;;;;;;;4.43;3.47;;;;;;;;;;10355739;28;20042;-78
2022/06/03 03:03:21;;;;;;;3.27;3.03;;;;;;;;;;10334052;28;20050;-75
2022/06/03 03:08:33;;;;;;;3.77;3.43;;;;;;;;;;10347177;28;20045;-78
2022/06/03 03:13:52;;;;;;;3.42;3.10;;;;;;;;;;10309580;28;21142;-77
2022/06/03 03:19:10;;;;;;;3.20;2.97;;;;;;;;;;10344102;28;20077;-75
2022/06/03 03:24:19;;;;;;;4.28;3.63;;;;;;;;;;10318339;28;20053;-77
2022/06/03 03:29:38;;;;;;;4.57;3.92;;;;;;;;;;10339348;28;20045;-78
2022/06/03 03:34:38;;;;;;;3.80;3.15;;;;;;;;;;10344468;28;20060;-77
2022/06/03 03:39:46;;;;;;;4.17;3.67;;;;;;;;;;10311900;28;20780;-78
2022/06/03 03:44:49;;;;;;;4.00;3.40;;;;;;;;;;10335106;28;20472;-77
2022/06/03 03:50:04;;;;;;;3.53;3.22;;;;;;;;;;10305457;28;20446;-75
2022/06/03 03:55:24;;;;;;;4.22;3.83;;;;;;;;;;10335751;28;20065;-79
2022/06/03 04:00:36;;;;;;;6.88;4.50;;;;;;;;;;10379065;28;20037;-78
2022/06/03 04:05:47;;;;;;;4.40;4.00;;;;;;;;;;10360099;28;20923;-77
2022/06/03 04:10:52;;;;;;;4.00;3.60;;;;;;;;;;10380850;28;20053;-80
2022/06/03 04:15:52;;;;;;;;;;;;;;;;;;10359361;28;20109;-78
2022/06/03 04:20:53;;;;;;;6.70;5.03;;;;;;;;;;10349772;28;20279;-78
2022/06/03 04:25:53;;;;;;;4.95;4.22;;;;;;;;;;10352419;28;20046;-78
2022/06/03 04:31:18;;;;;;;5.10;4.60;;;;;;;;;;10354717;28;20065;-77
2022/06/03 04:36:40;;;;;;;4.90;4.35;;;;;;;;;;10353024;28;20307;-78
2022/06/03 04:41:43;;;;;;;5.18;4.30;;;;;;;;;;10345498;28;20149;-79
2022/06/03 04:47:02;;;;;;;4.70;3.97;;;;;;;;;;10354060;28;20104;-77
2022/06/03 04:52:02;;;;;;;3.95;3.45;;;;;;;;;;10325274;28;20209;-77
2022/06/03 04:57:06;;;;;;;5.23;4.73;;;;;;;;;;10348191;28;20117;-77
2022/06/03 05:02:25;;;;;;;4.88;4.38;;;;;;;;;;10350793;28;20297;-76
2022/06/03 05:07:42;;;;;;;4.38;3.97;;;;;;;;;;10360022;28;20718;-77
2022/06/03 05:13:03;;;;;;;4.82;4.07;;;;;;;;;;10341019;28;20034;-74
2022/06/03 05:18:03;;;;;;;4.25;3.92;;;;;;;;;;10322229;28;20046;-76
2022/06/03 05:23:17;;;;;;;4.35;3.67;;;;;;;;;;10349185;28;20088;-75
2022/06/03 05:28:43;;;;;;;3.92;3.53;;;;;;;;;;10336657;28;20446;-76
2022/06/03 05:34:02;;;;;;;3.35;3.05;;;;;;;;;;10345650;28;20045;-76
2022/06/03 05:39:22;;;;;;;3.75;3.45;;;;;;;;;;10351690;28;20061;-76
2022/06/03 05:44:34;;;;;;;3.83;3.40;;;;;;;;;;10339430;28;20505;-75
2022/06/03 05:49:50;;;;;;;3.17;2.97;;;;;;;;;;10332026;28;20057;-74
2022/06/03 05:54:53;;;;;;;4.30;3.90;;;;;;;;;;10358257;28;20109;-78
2022/06/03 05:59:53;;;;;;;5.43;3.80;;;;;;;;;;10348419;28;20106;-76
2022/06/03 06:05:01;;;;;;;4.07;3.50;;;;;;;;;;10356881;28;20124;-77
2022/06/03 06:10:05;;;;;;;3.60;3.35;;;;;;;;;;10344449;28;20111;-78
2022/06/03 06:15:05;;;;;;;4.20;3.80;;;;;;;;;;10334581;28;20485;-77
2022/06/03 06:20:24;;;;;;;3.97;3.43;;;;;;;;;;10341673;28;20050;-78
2022/06/03 06:25:33;;;;;;;5.32;3.45;;;;;;;;;;10354210;28;20057;-78
2022/06/03 06:30:44;;;;;;;4.15;3.83;;;;;;;;;;10344457;28;20034;-77
2022/06/03 06:36:03;;;;;;;3.97;3.58;;;;;;;;;;10375726;28;20069;-80
2022/06/03 06:41:14;;;;;;;3.92;3.53;;;;;;;;;;10388473;28;20137;-79
2022/06/03 06:46:14;;;;;;;3.92;3.55;;;;;;;;;;10349678;28;20037;-73
2022/06/03 06:51:30;;;;;;;3.63;3.33;;;;;;;;;;10348874;28;20039;-72
2022/06/03 06:56:37;;;;;;;12.63;9.30;;;;;;;;;;10348382;28;20309;-79
2022/06/03 07:01:53;;;;;;;4.10;3.80;;;;;;;;;;10384104;28;20085;-79
2022/06/03 07:06:58;;;;;;;4.30;3.90;;;;;;;;;;10381618;28;20046;-80
2022/06/03 07:12:18;;;;;;;3.65;3.35;;;;;;;;;;10393905;28;20028;-81
2022/06/03 07:22:55;;;;;;;4.05;3.75;;;;;;;;;;10345155;28;20112;-80
2022/06/03 07:28:16;;;;;;;3.30;3.10;;;;;;;;;;10351460;28;20859;-78
2022/06/03 07:33:36;;;;;;;4.28;3.72;;;;;;;;;;10338952;28;20043;-77
2022/06/03 07:38:40;;;;;;;3.97;3.58;;;;;;;;;;10331741;28;20646;-79
2022/06/03 07:43:47;;;;;;;3.63;3.33;;;;;;;;;;10324640;28;20068;-79
2022/06/03 07:48:48;;;;;;;4.07;3.78;;;;;;;;;;10342473;28;20103;-79
2022/06/03 07:53:53;;;;;;;3.70;3.40;;;;;;;;;;10328509;28;20110;-79
2022/06/03 07:59:29;;;;;;;4.38;4.00;;;;;;;;;;10337101;28;20053;-73
2022/06/03 08:04:31;;;;;;;4.20;3.75;;;;;;;;;;10349609;28;20043;-81
2022/06/03 08:14:53;;;;;;;4.00;3.60;;;;;;;;;;10348010;28;20065;-82
2022/06/03 08:19:55;;;;;;;3.75;3.45;;;;;;;;;;10334834;28;20061;-81
2022/06/03 08:24:59;;;;;;;3.35;3.10;;;;;;;;;;10348466;28;20053;-81
2022/06/03 08:30:14;;;;;;;3.80;3.50;;;;;;;;;;10343646;28;20068;-80
2022/06/03 08:35:26;;;;;;;3.70;3.40;;;;;;;;;;10340959;28;20107;-82
2022/06/03 08:40:50;;;;;;;4.22;3.65;;;;;;;;;;10348634;28;20041;-81
2022/06/03 08:46:05;;;;;;;3.63;3.40;;;;;;;;;;10341394;28;20117;-78
2022/06/03 08:51:11;;;;;;;5.05;4.28;;;;;;;;;;10338503;28;20045;-77
2022/06/03 08:56:20;;;;;;;3.83;3.53;;;;;;;;;;10357368;28;20046;-75
2022/06/03 09:01:27;;;;;;;3.85;3.55;;;;;;;;;;10335343;28;20031;-75
2022/06/03 09:06:27;;;;;;;4.25;3.85;;;;;;;;;;10328038;28;20104;-77
2022/06/03 09:11:44;;;;;;;5.43;4.00;;;;;;;;;;10328788;28;20049;-74
2022/06/03 09:16:46;;;;;;;7.00;5.10;;;;;;;;;;10341388;28;20488;-77
2022/06/03 09:21:51;;;;;;;4.65;3.60;;;;;;;;;;10331712;28;20061;-76
2022/06/03 09:26:53;;;;;;;4.00;3.60;;;;;;;;;;10339267;28;20072;-75
2022/06/03 09:31:58;;;;;;;4.63;3.72;;;;;;;;;;10307252;28;20654;-75
2022/06/03 09:36:59;;;;;;;4.03;3.67;;;;;;;;;;10336084;28;20406;-74
2022/06/03 09:41:59;;;;;;;4.20;3.80;;;;;;;;;;10328129;28;20103;-74
2022/06/03 09:47:04;;;;;;;4.10;3.80;;;;;;;;;;10313919;28;20141;-74
2022/06/03 09:52:09;;;;;;;3.70;3.40;;;;;;;;;;10344941;28;20189;-73
2022/06/03 09:57:28;;;;;;;4.13;3.75;;;;;;;;;;10331389;28;20038;-74
2022/06/03 10:02:28;;;;;;;3.78;3.58;;;;;;;;;;10352383;28;20129;-79
2022/06/03 10:07:29;;;;;;;5.13;3.45;;;;;;;;;;10370175;28;20094;-83
2022/06/03 10:12:50;;;;;;;4.75;3.78;;;;;;;;;;10376255;28;20575;-82
2022/06/03 10:17:54;;;;;;;3.42;3.13;;;;;;;;;;10373407;28;20073;-84
2022/06/03 10:22:56;;;;;;;4.00;3.35;;;;;;;;;;10395313;28;20030;-83
2022/06/03 10:28:01;;;;;;;3.63;3.15;;;;;;;;;;10376192;28;20120;-84
2022/06/03 10:33:05;;;;;;;3.60;3.30;;;;;;;;;;10331095;28;20038;-81
2022/06/03 10:38:11;;;;;;;6.82;3.38;;;;;;;;;;10357341;28;20049;-82
2022/06/03 10:43:19;;;;;;;4.55;3.30;;;;;;;;;;10340679;28;20046;-82
2022/06/03 10:48:28;;;;;;;3.40;3.00;;;;;;;;;;10370996;28;20074;-88
2022/06/03 11:04:09;;;;;;;3.10;2.90;;;;;;;;;;10368206;28;20244;-81
2022/06/03 11:09:14;;;;;;;3.75;3.45;;;;;;;;;;10365082;28;20100;-80
2022/06/03 11:14:24;;;;;;;3.63;3.33;;;;;;;;;;10357983;28;20816;-79
2022/06/03 11:19:25;;;;;;;5.30;3.30;;;;;;;;;;10338256;28;20053;-79
2022/06/03 11:24:26;;;;;;;3.50;3.20;;;;;;;;;;10333728;28;20109;-81
2022/06/03 11:29:32;;;;;;;3.90;3.33;;;;;;;;;;10333401;28;20141;-81
2022/06/03 11:34:41;;;;;;;3.20;2.97;;;;;;;;;;10371193;28;20057;-82
2022/06/03 11:40:02;;;;;;;4.03;3.28;;;;;;;;;;10374969;28;20034;-77
2022/06/03 11:45:13;;;;;;;3.30;3.10;;;;;;;;;;10351611;28;20060;-79
2022/06/03 11:50:35;;;;;;;4.97;3.17;;;;;;;;;;10346340;28;20042;-84
2022/06/03 11:56:00;;;;;;;4.03;3.08;;;;;;;;;;10334420;28;20469;-85
2022/06/03 12:01:04;;;;;;;4.32;3.17;;;;;;;;;;10330368;28;20035;-82
2022/06/03 12:06:16;;;;;;;3.80;3.10;;;;;;;;;;10350483;28;20041;-83
2022/06/03 12:16:57;;;;;;;5.90;4.22;;;;;;;;;;10340516;28;20133;-84
2022/06/03 12:22:30;;;;;;;3.53;3.22;;;;;;;;;;10293281;28;20046;-82
2022/06/03 12:27:31;;;;;;;;;;;;;;;;;;10360467;28;20121;-82
2022/06/03 12:32:33;;;;;;;3.25;2.95;;;;;;;;;;10357147;28;19924;-85
2022/06/03 12:37:36;;;;;;;3.92;3.53;;;;;;;;;;10366061;28;20479;-79
2022/06/03 12:42:40;;;;;;;4.67;3.97;;;;;;;;;;10358243;28;20259;-86
2022/06/03 12:47:46;;;;;;;4.97;3.40;;;;;;;;;;10360780;28;20058;-80
2022/06/03 12:52:48;;;;;;;3.05;2.75;;;;;;;;;;10363563;28;20053;-81
2022/06/03 12:58:02;;;;;;;4.30;3.90;;;;;;;;;;10336372;28;20038;-77
2022/06/03 13:03:04;;;;;;;4.03;3.33;;;;;;;;;;10362556;28;20045;-79
2022/06/03 13:08:06;;;;;;;3.72;3.13;;;;;;;;;;10360667;28;20166;-79
2022/06/03 13:13:24;;;;;;;4.18;3.50;;;;;;;;;;10336572;28;20069;-78
2022/06/03 13:18:39;;;;;;;5.00;4.50;;;;;;;;;;10356628;28;20037;-79
2022/06/03 13:23:44;;;;;;;7.97;7.03;;;;;;;;;;10356668;28;20066;-79
2022/06/03 13:28:45;;;;;;;3.63;3.17;;;;;;;;;;10359664;28;20073;-80
2022/06/03 13:33:59;;;;;;;3.65;3.15;;;;;;;;;;10367017;28;20049;-80
2022/06/03 13:39:00;;;;;;;3.55;3.17;;;;;;;;;;10332120;28;20133;-79
2022/06/03 13:44:04;;;;;;;3.95;3.55;;;;;;;;;;10369861;28;20768;-80
2022/06/03 13:49:18;;;;;;;3.47;3.15;;;;;;;;;;10371086;28;20536;-80
2022/06/03 13:54:19;;;;;;;3.90;3.15;;;;;;;;;;10348948;28;20470;-78
2022/06/03 13:59:20;;;;;;;3.10;2.87;;;;;;;;;;10350003;28;20100;-79
2022/06/03 14:04:27;;;;;;;3.20;3.00;;;;;;;;;;10335097;28;20508;-81
2022/06/03 14:09:27;;;;;;;3.83;3.53;;;;;;;;;;10373453;28;20082;-81
2022/06/03 14:14:46;;;;;;;3.70;3.40;;;;;;;;;;10336704;28;20042;-81
2022/06/03 14:19:49;;;;;;;4.68;3.92;;;;;;;;;;10344792;28;20081;-80
2022/06/03 14:25:02;;;;;;;5.22;4.22;;;;;;;;;;10388198;28;20078;-82
2022/06/03 14:30:22;;;;;;;3.90;3.10;;;;;;;;;;10390449;28;20054;-78
2022/06/03 14:35:28;;;;;;;3.22;3.03;;;;;;;;;;10371878;28;20037;-80
2022/06/03 14:40:31;;;;;;;4.63;3.25;;;;;;;;;;10341770;28;20041;-81
2022/06/03 14:45:36;;;;;;;3.70;2.80;;;;;;;;;;10343274;28;20042;-80
2022/06/03 14:50:44;;;;;;;4.35;3.95;;;;;;;;;;10368847;28;20089;-81
2022/06/03 14:55:48;;;;;;;3.35;2.85;;;;;;;;;;10360992;28;20093;-80
2022/06/03 15:01:18;;;;;;;5.47;3.30;;;;;;;;;;10384377;28;20044;-82
2022/06/03 15:06:24;;;;;;;4.15;3.70;;;;;;;;;;10365356;28;20776;-79
2022/06/03 15:11:38;;;;;;;3.97;3.58;;;;;;;;;;10355168;28;20039;-80
2022/06/03 15:16:59;;;;;;;4.53;3.78;;;;;;;;;;10366045;28;20389;-82
2022/06/03 15:22:00;;;;;;;3.87;3.57;;;;;;;;;;10346183;28;20042;-80
2022/06/03 15:27:01;;;;;;;3.10;2.90;;;;;;;;;;10328449;28;20149;-82
2022/06/03 15:32:02;;;;;;;3.60;3.27;;;;;;;;;;10360787;28;20046;-81
2022/06/03 15:37:03;;;;;;;4.10;3.60;;;;;;;;;;10381371;28;20050;-81
2022/06/03 15:42:09;;;;;;;3.25;2.95;;;;;;;;;;10367369;28;20038;-81
2022/06/03 15:47:14;;;;;;;3.10;2.88;;;;;;;;;;10370265;28;20121;-80
2022/06/03 15:52:15;;;;;;;3.53;3.22;;;;;;;;;;10382267;28;20030;-81
2022/06/03 15:57:20;;;;;;;3.65;3.35;;;;;;;;;;10360778;28;20045;-81
2022/06/03 16:02:25;;;;;;;4.07;3.13;;;;;;;;;;10353900;28;20068;-81
2022/06/03 16:07:46;;;;;;;3.42;3.10;;;;;;;;;;10363504;28;20077;-81
2022/06/03 16:12:47;;;;;;;3.85;3.53;;;;;;;;;;10373417;28;20076;-81
2022/06/03 16:17:59;;;;;;;3.43;3.13;;;;;;;;;;10345681;28;20053;-78
2022/06/03 16:22:59;;;;;;;;;;;;;;;;;;10361397;28;20041;-84
2022/06/03 16:28:19;;;;;;;10.73;4.93;;;;;;;;;;10393856;28;19926;-82
2022/06/03 16:33:38;;;;;;;6.32;4.25;;;;;;;;;;10371512;28;20057;-84
2022/06/03 16:38:53;;;;;;;8.05;4.95;;;;;;;;;;10326896;28;20054;-84
2022/06/03 16:44:17;;;;;;;13.68;6.63;;;;;;;;;;10311915;28;20457;-82
2022/06/03 16:49:42;;;;;;;14.93;9.45;;;;;;;;;;10341480;28;20149;-81
2022/06/03 16:55:03;;;;;;;5.40;4.47;;;;;;;;;;10345679;28;20046;-79
2022/06/03 17:00:09;;;;;;;7.45;5.50;;;;;;;;;;10336390;28;20110;-82
2022/06/03 17:05:15;;;;;;;6.68;5.53;;;;;;;;;;10363081;28;20042;-81
2022/06/03 17:10:18;;;;;;;9.32;6.13;;;;;;;;;;10395108;28;20046;-83
2022/06/03 17:15:18;;;;;;;8.00;5.53;;;;;;;;;;10402992;28;20065;-84
2022/06/03 17:20:19;;;;;;;5.40;4.72;;;;;;;;;;10385193;28;20085;-80
2022/06/03 17:25:39;;;;;;;8.20;6.63;;;;;;;;;;10355638;28;20129;-80
2022/06/03 17:30:52;;;;;;;13.20;9.25;;;;;;;;;;10333124;28;20503;-81
2022/06/03 17:35:52;;;;;;;13.20;8.97;;;;;;;;;;10343818;28;20069;-81
2022/06/03 17:41:11;;;;;;;8.37;6.27;;;;;;;;;;10371204;28;20376;-80
2022/06/03 17:46:14;;;;;;;7.43;6.18;;;;;;;;;;10349616;28;20046;-79
2022/06/03 17:56:42;;;;;;;8.95;7.43;;;;;;;;;;10361908;28;20046;-81
2022/06/03 18:02:00;;;;;;;12.68;9.10;;;;;;;;;;10356590;28;20045;-82
2022/06/03 18:07:10;;;;;;;10.45;8.52;;;;;;;;;;10361135;28;20145;-80
2022/06/03 18:12:19;;;;;;;9.50;8.38;;;;;;;;;;10330817;28;20061;-83
2022/06/03 18:17:29;;;;;;;10.25;8.70;;;;;;;;;;10313839;28;20085;-79
2022/06/03 18:22:35;;;;;;;8.13;7.32;;;;;;;;;;10345880;28;20046;-81
2022/06/03 18:27:55;;;;;;;9.85;7.50;;;;;;;;;;10348539;28;20061;-80
2022/06/03 18:33:15;;;;;;;8.57;7.57;;;;;;;;;;10363790;28;20042;-84
2022/06/03 18:38:30;;;;;;;8.35;7.10;;;;;;;;;;10371490;28;20052;-83
2022/06/03 18:43:35;;;;;;;7.60;6.80;;;;;;;;;;10358680;28;20042;-83
2022/06/03 18:48:55;;;;;;;7.72;6.50;;;;;;;;;;10358409;28;20076;-82
2022/06/03 18:54:09;;;;;;;7.25;6.20;;;;;;;;;;10371501;28;20048;-80
2022/06/03 18:59:28;;;;;;;7.60;6.82;;;;;;;;;;10382259;28;20085;-83
2022/06/03 19:04:35;;;;;;;9.15;7.10;;;;;;;;;;10323767;28;20160;-81
2022/06/03 19:09:54;;;;;;;8.07;7.07;;;;;;;;;;10355437;28;20129;-82
2022/06/03 19:15:04;;;;;;;8.00;7.20;;;;;;;;;;10354613;28;20074;-79
2022/06/03 19:20:23;;;;;;;10.25;8.35;;;;;;;;;;10365011;28;20054;-79
2022/06/03 19:25:27;;;;;;;7.20;6.50;;;;;;;;;;10339372;28;20054;-82
2022/06/03 19:30:32;;;;;;;7.78;6.63;;;;;;;;;;10375838;28;20601;-83
2022/06/03 19:35:52;;;;;;;7.75;6.97;;;;;;;;;;10373787;28;20045;-84
2022/06/03 19:41:00;;;;;;;8.57;7.47;;;;;;;;;;10359513;28;20050;-83
2022/06/03 19:46:11;;;;;;;10.48;8.90;;;;;;;;;;10378828;28;20046;-81
2022/06/03 19:51:31;;;;;;;9.50;7.23;;;;;;;;;;10364628;28;20046;-83
2022/06/03 19:56:36;;;;;;;7.55;6.68;;;;;;;;;;10365632;28;20101;-82
2022/06/03 20:01:56;;;;;;;9.52;7.43;;;;;;;;;;10363262;28;20057;-83
2022/06/03 20:07:01;;;;;;;11.40;7.80;;;;;;;;;;10373486;28;20078;-82
2022/06/03 20:17:30;;;;;;;10.38;9.05;;;;;;;;;;10338592;28;20053;-83
2022/06/03 20:22:39;;;;;;;10.75;9.07;;;;;;;;;;10332478;28;20049;-82
2022/06/03 20:27:53;;;;;;;11.23;9.63;;;;;;;;;;10346572;28;20050;-83
2022/06/03 20:33:02;;;;;;;12.65;11.35;;;;;;;;;;10341465;28;20041;-81
2022/06/03 20:38:15;;;;;;;12.13;10.85;;;;;;;;;;10353299;28;20045;-76
2022/06/03 20:43:15;;;;;;;14.20;11.07;;;;;;;;;;10343280;28;20049;-77
2022/06/03 20:48:23;;;;;;;11.20;10.00;;;;;;;;;;10326478;28;20050;-76
2022/06/03 20:53:26;;;;;;;10.93;9.70;;;;;;;;;;10340767;28;20042;-79
2022/06/03 20:58:32;;;;;;;13.07;11.70;;;;;;;;;;10319350;28;20050;-77
2022/06/03 21:14:12;;;;;;;10.43;9.35;;;;;;;;;;10330469;28;20114;-75
2022/06/03 21:19:13;;;;;;;10.17;8.83;;;;;;;;;;10340883;28;20449;-75
2022/06/03 21:24:25;;;;;;;11.35;10.15;;;;;;;;;;10325176;28;20282;-75
2022/06/03 21:29:26;;;;;;;10.63;9.43;;;;;;;;;;10308225;28;20077;-75
2022/06/03 21:34:30;;;;;;;13.52;10.85;;;;;;;;;;10337820;28;20042;-77
2022/06/03 21:39:36;;;;;;;11.52;9.38;;;;;;;;;;10347172;28;20050;-75
2022/06/03 21:44:42;;;;;;;11.60;10.40;;;;;;;;;;10344518;28;20120;-75
2022/06/03 21:49:46;;;;;;;13.00;11.05;;;;;;;;;;10355697;28;20062;-76
2022/06/03 21:54:46;;;;;;;10.57;9.48;;;;;;;;;;10346200;28;20049;-77
2022/06/03 22:00:06;;;;;;;10.73;9.63;;;;;;;;;;10349022;28;20050;-74
2022/06/03 22:05:08;;;;;;;11.45;10.07;;;;;;;;;;10332939;28;20057;-75
2022/06/03 22:10:10;;;;;;;12.48;11.23;;;;;;;;;;10331912;28;20054;-74
2022/06/03 22:15:21;;;;;;;9.60;8.60;;;;;;;;;;10343732;28;20671;-75
2022/06/03 22:20:23;;;;;;;12.57;10.15;;;;;;;;;;10344797;28;20057;-74
2022/06/03 22:25:43;;;;;;;10.45;9.10;;;;;;;;;;10339919;28;20505;-75
2022/06/03 22:30:43;;;;;;;11.13;9.73;;;;;;;;;;10333558;28;20069;-73
2022/06/03 22:35:44;;;;;;;11.00;9.23;;;;;;;;;;10333973;28;20209;-76
2022/06/03 22:41:03;;;;;;;9.70;8.70;;;;;;;;;;10338023;28;20047;-73
2022/06/03 22:46:03;;;;;;;10.73;9.55;;;;;;;;;;10342279;28;20512;-73
2022/06/03 22:51:04;;;;;;;11.90;10.80;;;;;;;;;;10350033;28;20052;-76
2022/06/03 22:56:05;;;;;;;10.45;9.23;;;;;;;;;;10337961;28;20045;-75
2022/06/03 23:01:05;;;;;;;12.43;10.38;;;;;;;;;;10332534;28;20497;-75
2022/06/03 23:06:06;;;;;;;11.18;9.98;;;;;;;;;;10345901;28;20046;-74
2022/06/03 23:11:06;;;;;;;11.25;10.02;;;;;;;;;;10355741;28;20461;-75
2022/06/03 23:16:07;;;;;;;11.40;10.10;;;;;;;;;;10331238;28;20483;-74
2022/06/03 23:21:09;;;;;;;11.32;10.10;;;;;;;;;;10333577;28;20787;-75
2022/06/03 23:26:12;;;;;;;10.97;9.90;;;;;;;;;;10344855;28;20070;-73
2022/06/03 23:31:16;;;;;;;11.32;9.98;;;;;;;;;;10324503;28;20489;-74
2022/06/03 23:36:17;;;;;;;11.32;9.82;;;;;;;;;;10339604;28;20044;-73
2022/06/03 23:46:37;;;;;;;14.88;11.85;;;;;;;;;;10336816;28;20552;-74
2022/06/03 23:51:37;;;;;;;11.53;10.33;;;;;;;;;;10329827;28;20042;-74
2022/06/03 23:56:38;;;;;;;13.27;11.88;;;;;;;;;;10324045;28;20274;-74
